Big Bear Station Historical Data
Daily Summary for June 17, 2017 Units:  English    Metric   Both
« Previous Day
Next Day »
Daily Weekly Monthly Yearly Custom
  High: Low: Average:
Temperature: 86.7 °F 45.5 °F 66 °F
Dew Point: 46.2 °F 23.8 °F 34.1 °F
Humidity: 74 % 13 % 36 %
Wind Speed: 6.8 mph 0.0 mph 1.7 mph
Wind Gust: -999.0 mph - -
Wind:- - WNW
Pressure: 30.23 in 30.18 in -
Precipitation: 0.00 in    
Historical Graphs
 
 
Tabular Data for June 17, 2017
Time Temperature Dew Point Pressure Wind Wind Speed Wind Gust Humidity Rainfall Rate (Hourly)
00:21 53.2 °F 30.1 °F 30.23 in Calm   -999.0 mph 41 % 0 in
00:36 52.5 °F 32.3 °F 30.23 in Calm   -999.0 mph 46 % 0 in
00:51 52.2 °F 35.1 °F 30.23 in Calm   -999.0 mph 52 % 0 in
01:06 51.6 °F 34.1 °F 30.22 in Calm   -999.0 mph 51 % 0 in
01:22 51.3 °F 31.2 °F 30.22 in Calm   -999.0 mph 46 % 0 in
01:37 50.7 °F 29.6 °F 30.22 in Calm   -999.0 mph 44 % 0 in
01:52 50.5 °F 29.9 °F 30.22 in Calm   -999.0 mph 45 % 0 in
02:07 50.4 °F 32.0 °F 30.21 in Calm   -999.0 mph 49 % 0 in
02:22 49.8 °F 32.4 °F 30.21 in Calm   -999.0 mph 51 % 0 in
02:38 49.6 °F 32.7 °F 30.21 in Calm   -999.0 mph 52 % 0 in
02:53 49.3 °F 33.8 °F 30.21 in Calm   -999.0 mph 55 % 0 in
03:08 49.1 °F 33.2 °F 30.21 in Calm   -999.0 mph 54 % 0 in
03:23 48.7 °F 30.4 °F 30.21 in Calm   -999.0 mph 49 % 0 in
03:38 48.2 °F 29.9 °F 30.21 in Calm   -999.0 mph 49 % 0 in
03:54 48.0 °F 33.0 °F 30.21 in Calm   -999.0 mph 56 % 0 in
04:09 47.7 °F 34.1 °F 30.21 in Calm   -999.0 mph 59 % 0 in
04:24 47.3 °F 33.7 °F 30.20 in Calm   -999.0 mph 59 % 0 in
04:39 47.1 °F 34.3 °F 30.20 in Calm   -999.0 mph 61 % 0 in
04:54 46.8 °F 34.9 °F 30.21 in Calm   -999.0 mph 63 % 0 in
05:10 46.4 °F 34.9 °F 30.20 in Calm   -999.0 mph 64 % 0 in
05:25 46.0 °F 34.5 °F 30.20 in Calm   -999.0 mph 64 % 0 in
05:40 45.7 °F 35.0 °F 30.20 in Calm   -999.0 mph 66 % 0 in
05:55 45.5 °F 35.2 °F 30.21 in Calm   -999.0 mph 67 % 0 in
06:11 45.7 °F 35.4 °F 30.21 in Calm   -999.0 mph 67 % 0 in
06:26 46.0 °F 35.7 °F 30.21 in Calm   -999.0 mph 67 % 0 in
06:41 45.7 °F 36.8 °F 30.21 in Calm   -999.0 mph 71 % 0 in
06:56 47.1 °F 38.2 °F 30.21 in Calm   -999.0 mph 71 % 0 in
07:11 48.6 °F 38.9 °F 30.21 in Calm   -999.0 mph 69 % 0 in
07:42 49.3 °F 41.4 °F 30.22 in Calm   -999.0 mph 74 % 0 in
07:57 51.1 °F 39.3 °F 30.22 in Calm   -999.0 mph 64 % 0 in
08:12 53.8 °F 39.8 °F 30.22 in Calm   -999.0 mph 59 % 0 in
08:27 55.6 °F 41.5 °F 30.22 in Calm   -999.0 mph 59 % 0 in
08:43 57.0 °F 43.3 °F 30.22 in NW 1.7 mph -999.0 mph 60 % 0 in
08:58 59.7 °F 46.2 °F 30.22 in Calm   -999.0 mph 61 % 0 in
09:13 62.4 °F 45.0 °F 30.22 in Calm   -999.0 mph 53 % 0 in
09:28 66.2 °F 39.2 °F 30.22 in Calm   -999.0 mph 37 % 0 in
09:43 71.6 °F 31.8 °F 30.21 in NW 3.2 mph -999.0 mph 23 % 0 in
09:59 72.9 °F 31.8 °F 30.21 in North 3.2 mph -999.0 mph 22 % 0 in
10:14 74.3 °F 31.8 °F 30.21 in NW 2.2 mph -999.0 mph 21 % 0 in
10:29 75.7 °F 27.8 °F 30.22 in NW 3.7 mph -999.0 mph 17 % 0 in
10:44 76.8 °F 27.2 °F 30.22 in NNE 2.7 mph -999.0 mph 16 % 0 in
10:59 77.0 °F 31.6 °F 30.22 in NNW 4.2 mph -999.0 mph 19 % 0 in
11:15 78.6 °F 30.1 °F 30.22 in NW 3.7 mph -999.0 mph 17 % 0 in
11:30 79.9 °F 31.2 °F 30.22 in NNW 3.7 mph -999.0 mph 17 % 0 in
11:45 81.9 °F 31.3 °F 30.22 in NNW 3.7 mph -999.0 mph 16 % 0 in
12:00 84.6 °F 31.9 °F 30.21 in WNW 3.2 mph -999.0 mph 15 % 0 in
12:15 83.8 °F 32.8 °F 30.21 in WNW 4.7 mph -999.0 mph 16 % 0 in
12:31 84.6 °F 36.4 °F 30.21 in North 4.2 mph -999.0 mph 18 % 0 in
12:46 84.9 °F 35.2 °F 30.21 in NNW 4.7 mph -999.0 mph 17 % 0 in
13:01 85.8 °F 34.4 °F 30.21 in NW 5.3 mph -999.0 mph 16 % 0 in
13:17 86.7 °F 31.8 °F 30.21 in NW 4.7 mph -999.0 mph 14 % 0 in
13:32 86.2 °F 33.1 °F 30.20 in NNW 5.3 mph -999.0 mph 15 % 0 in
13:47 86.7 °F 31.8 °F 30.20 in NW 5.3 mph -999.0 mph 14 % 0 in
14:03 84.7 °F 28.4 °F 30.21 in NNW 3.2 mph -999.0 mph 13 % 0 in
14:18 86.0 °F 31.3 °F 30.20 in NNW 6.8 mph -999.0 mph 14 % 0 in
14:33 86.7 °F 33.5 °F 30.20 in NW 4.2 mph -999.0 mph 15 % 0 in
14:48 85.6 °F 32.7 °F 30.20 in WNW 5.3 mph -999.0 mph 15 % 0 in
15:04 85.1 °F 33.9 °F 30.20 in NNW 5.8 mph -999.0 mph 16 % 0 in
15:19 85.3 °F 35.6 °F 30.20 in NE 5.3 mph -999.0 mph 17 % 0 in
15:34 85.3 °F 32.4 °F 30.20 in ESE 2.2 mph -999.0 mph 15 % 0 in
15:49 84.9 °F 33.7 °F 30.20 in SE 3.7 mph -999.0 mph 16 % 0 in
16:05 84.2 °F 34.7 °F 30.19 in NNW 4.2 mph -999.0 mph 17 % 0 in
16:20 84.0 °F 34.5 °F 30.19 in SSE 2.7 mph -999.0 mph 17 % 0 in
16:36 84.4 °F 36.3 °F 30.19 in WNW 4.7 mph -999.0 mph 18 % 0 in
16:51 85.1 °F 36.8 °F 30.19 in WNW 4.2 mph -999.0 mph 18 % 0 in
17:06 85.5 °F 37.2 °F 30.18 in North 4.7 mph -999.0 mph 18 % 0 in
17:22 86.2 °F 37.7 °F 30.19 in WNW 2.7 mph -999.0 mph 18 % 0 in
17:37 86.2 °F 37.7 °F 30.19 in West 4.7 mph -999.0 mph 18 % 0 in
17:52 83.7 °F 37.1 °F 30.18 in NW 5.8 mph -999.0 mph 19 % 0 in
18:08 84.0 °F 38.6 °F 30.18 in NW 3.2 mph -999.0 mph 20 % 0 in
18:23 84.4 °F 39.0 °F 30.18 in South 3.2 mph -999.0 mph 20 % 0 in
18:38 82.2 °F 39.6 °F 30.18 in West 3.2 mph -999.0 mph 22 % 0 in
18:53 81.1 °F 39.8 °F 30.18 in NW 5.3 mph -999.0 mph 23 % 0 in
19:08 79.2 °F 39.3 °F 30.19 in WNW 2.7 mph -999.0 mph 24 % 0 in
19:24 75.6 °F 40.2 °F 30.19 in NW 1.7 mph -999.0 mph 28 % 0 in
19:39 72.5 °F 39.3 °F 30.19 in Calm   -999.0 mph 30 % 0 in
19:54 70.0 °F 37.1 °F 30.19 in Calm   -999.0 mph 30 % 0 in
20:09 68.2 °F 33.8 °F 30.19 in Calm   -999.0 mph 28 % 0 in
20:24 66.2 °F 30.3 °F 30.18 in Calm   -999.0 mph 26 % 0 in
20:40 64.4 °F 28.8 °F 30.19 in Calm   -999.0 mph 26 % 0 in
20:55 63.1 °F 28.6 °F 30.19 in Calm   -999.0 mph 27 % 0 in
21:10 62.1 °F 25.8 °F 30.19 in Calm   -999.0 mph 25 % 0 in
21:25 61.0 °F 24.9 °F 30.20 in Calm   -999.0 mph 25 % 0 in
21:40 60.1 °F 27.7 °F 30.20 in Calm   -999.0 mph 29 % 0 in
21:56 59.4 °F 24.5 °F 30.20 in Calm   -999.0 mph 26 % 0 in
22:11 58.6 °F 23.8 °F 30.20 in Calm   -999.0 mph 26 % 0 in
22:26 57.9 °F 28.2 °F 30.21 in Calm   -999.0 mph 32 % 0 in
22:41 57.2 °F 31.8 °F 30.21 in Calm   -999.0 mph 38 % 0 in
22:56 56.7 °F 33.3 °F 30.20 in Calm   -999.0 mph 41 % 0 in
23:12 56.1 °F 32.7 °F 30.20 in Calm   -999.0 mph 41 % 0 in
23:27 55.6 °F 35.7 °F 30.20 in Calm   -999.0 mph 47 % 0 in
23:42 55.0 °F 36.2 °F 30.20 in Calm   -999.0 mph 49 % 0 in
23:57 54.5 °F 37.2 °F 30.20 in Calm   -999.0 mph 52 % 0 in
Big Bear CA Weather
Compliments of Weather Underground - 1.5 mb